Latest Coastal Weather Observations for Onslow Airport

IDW60701

Issued at 6:23 pm WST Friday 24 February 2017 (issued every 10 minutes, with the page automatically refreshed every 10 minutes)

About coastal observations | Map of coastal stations | Coastal observations for WA | Marine services | Other Formats
Station Details ID: 005017 Name: ONSLOW AIRPORT Lat: -21.67 Lon: 115.11 Height: 10.5 m
Data from the previous 72 hours. | See also: Recent months at Onslow Airport
Date/Time
WST
Temp
°C
Wind Pressure Rain since
9am
mm
Weather Cloud Vis
km
Sea
Height
m
Swell
Dir  Spd
kts
Gust
kts
hPa Trend Height
m
Period
s
Dir
24/06:00pm 35.1 W 13 16 1010.7 - 0.0 - - - - - - -
24/05:30pm 34.7 W 12 15 1010.7 - 0.0 - - - - - - -
24/05:00pm 35.0 W 12 15 1010.7 - 0.0 - - - - - - -
24/04:30pm 34.8 WNW 13 15 1010.6 - 0.0 - - - - - - -
24/04:00pm 36.1 WNW 11 14 1010.6 - 0.0 - - - - - - -
24/03:30pm 36.4 NW 11 13 1010.8 - 0.0 - - - - - - -
24/03:00pm 37.1 NW 11 13 1011.1 - 0.0 - - - - - - -
24/02:30pm 37.4 NW 10 13 1011.4 - 0.0 - - - - - - -
24/02:00pm 37.9 NNW 10 13 1011.7 - 0.0 - - - - - - -
24/01:30pm 37.7 NNW 11 14 1012.0 - 0.0 - - - - - - -
24/01:00pm 38.8 N 10 13 1012.4 - 0.0 - - - - - - -
24/12:30pm 38.4 NNE 10 14 1012.9 - 0.0 - - - - - - -
24/12:00pm 38.3 NNE 10 14 1013.1 - 0.0 - - - - - - -
24/11:30am 38.3 E 8 11 1013.3 - 0.0 - - - - - - -
24/11:00am 37.7 E 7 11 1013.7 - 0.0 - - - - - - -
24/10:30am 35.8 SE 7 10 1014.1 - 0.0 - - - - - - -
24/10:00am 33.9 SE 8 10 1014.4 - 0.0 - - - - - - -
24/09:30am 33.9 SE 9 12 1014.8 - 0.0 - - - - - - -
24/09:00am 33.0 SE 10 13 1014.9 - 0.0 - - - - - - -
24/08:30am 31.1 ESE 11 14 1014.8 - 0.0 - - - - - - -
24/08:00am 30.2 ESE 11 13 1014.6 - 0.0 - - - - - - -
24/07:30am 29.6 ESE 7 9 1014.3 - 0.0 - - - - - - -
24/07:00am 27.8 ESE 6 7 1014.0 - 0.0 - - - - - - -
24/06:30am 26.5 SE 6 9 1013.9 - 0.0 - - - - - - -
24/06:00am 26.2 SE 7 9 1013.6 - 0.0 - - - - - - -
24/05:30am 26.5 SSE 5 7 1013.4 - 0.0 - - - - - - -
24/05:00am 26.2 S 7 8 1013.1 - 0.0 - - - - - - -
24/04:30am 26.1 SSE 6 7 1013.3 - 0.0 - - - - - - -
24/04:00am 26.4 S 7 9 1013.2 - 0.0 - - - - - - -
24/03:30am 26.1 SW 4 6 1012.9 - 0.0 - - - - - - -
24/03:00am 26.4 SSW 5 7 1012.8 - 0.0 - - - - - - -
24/02:30am 26.6 SSW 6 8 1013.0 - 0.0 - - - - - - -
24/02:00am 26.4 SSW 5 6 1013.3 - 0.0 - - - - - - -
24/01:30am 26.3 WSW 7 10 1013.3 - 0.0 - - - - - - -
24/01:00am 26.4 SW 7 8 1013.8 - 0.0 - - - - - - -
24/12:30am 26.6 SW 7 10 1014.0 - 0.0 - - - - - - -
24/12:00am 26.6 SE 7 8 1014.3 - 0.0 - - - - - - -
 
Date/Time
WST
Temp
°C
Wind Pressure Rain since
9am
mm
Weather Cloud Vis
km
Sea
Height
m
Swell
Dir  Spd
kts
Gust
kts
hPa Trend Height
m
Period
s
Dir
23/11:30pm 27.1 S 7 9 1014.4 - 0.0 - - - - - - -
23/11:00pm 27.3 WSW 6 7 1014.1 - 0.0 - - - - - - -
23/10:30pm 27.4 SW 7 8 1014.0 - 0.0 - - - - - - -
23/10:00pm 27.9 SSE 4 5 1014.3 - 0.0 - - - - - - -
23/09:30pm 28.5 ESE 7 8 1014.2 - 0.0 - - - - - - -
23/09:00pm 28.4 ESE 6 7 1014.2 - 0.0 - - - - - - -
23/08:30pm 28.5 ESE 6 7 1014.1 - 0.0 - - - - - - -
23/08:00pm 28.6 E 6 8 1014.0 - 0.0 - - - - - - -
23/07:30pm 28.9 ENE 11 13 1013.8 - 0.0 - - - - - - -
23/07:00pm 29.3 ENE 14 18 1013.3 - 0.0 - - - - - - -
23/06:30pm 30.0 NE 18 23 1012.8 - 0.0 - - - - - - -
23/06:00pm 30.8 ENE 18 22 1013.0 - 0.0 - - - - - - -
23/05:31pm 30.9 NE 23 33 1013.2 - 0.0 - - - - - - -
23/05:30pm 31.2 NE 22 30 1013.3 - 0.0 - - - - - - -
23/05:19pm 32.8 NNE 14 27 1013.1 - 0.0 - - - - - - -
23/05:00pm 35.4 NW 12 16 1011.3 - 0.0 - - - - - - -
23/04:30pm 34.4 WNW 12 17 1010.6 - 0.0 - - - - - - -
23/04:00pm 35.1 NW 14 17 1010.4 - 0.0 - - - - - - -
23/03:30pm 35.2 WNW 13 16 1010.2 - 0.0 - - - - - - -
23/03:00pm 35.7 NW 13 15 1010.2 - 0.0 - - - - - - -
23/02:30pm 34.5 WNW 13 17 1010.6 - 0.0 - - - - - - -
23/02:00pm 35.9 NW 12 14 1010.9 - 0.0 - - - - - - -
23/01:30pm 36.0 NW 11 13 1011.2 - 0.0 - - - - - - -
23/01:00pm 37.3 NNW 9 11 1011.6 - 0.0 - - - - - - -
23/12:30pm 37.5 NNW 7 11 1011.9 - 0.0 - - - - - - -
23/12:00pm 37.8 NE 8 12 1012.2 - 0.0 - - - - - - -
23/11:30am 37.6 SSE 6 9 1012.4 - 0.0 - - - - - - -
23/11:00am 36.8 SE 6 9 1012.6 - 0.0 - - - - - - -
23/10:30am 35.6 SE 6 9 1012.7 - 0.0 - - - - - - -
23/10:00am 34.4 SE 7 8 1012.7 - 0.0 - - - - - - -
23/09:30am 32.7 SE 9 11 1012.9 - 0.0 - - - - - - -
23/09:00am 31.6 SE 9 11 1013.0 - 0.0 - - - - - - -
23/08:30am 29.7 SSE 10 11 1012.8 - 0.0 - - - - - - -
23/08:00am 27.9 S 9 11 1012.7 - 0.0 - - - - - - -
23/07:30am 26.4 S 9 12 1012.6 - 0.0 - - - - - - -
23/07:00am 24.9 S 9 11 1012.4 - 0.0 - - - - - - -
23/06:30am 24.2 S 9 11 1012.0 - 0.0 - - - - - - -
23/06:00am 24.4 SSW 9 11 1011.6 - 0.0 - - - - - - -
23/05:30am 24.6 SSW 9 12 1011.4 - 0.0 - - - - - - -
23/05:00am 24.8 SSW 10 13 1011.3 - 0.0 - - - - - - -
23/04:30am 24.9 S 10 12 1011.3 - 0.0 - - - - - - -
23/04:00am 25.4 SSW 11 14 1011.1 - 0.0 - - - - - - -
23/03:30am 25.6 S 11 14 1011.1 - 0.0 - - - - - - -
23/03:00am 26.1 SSW 11 14 1011.0 - 0.0 - - - - - - -
23/02:30am 26.6 SSW 12 16 1011.1 - 0.0 - - - - - - -
23/02:00am 27.0 SSW 11 14 1011.3 - 0.0 - - - - - - -
23/01:30am 27.6 SSW 11 16 1011.6 - 0.0 - - - - - - -
23/01:00am 27.8 SSW 11 14 1011.7 - 0.0 - - - - - - -
23/12:30am 28.0 SSW 10 12 1011.8 - 0.0 - - - - - - -
23/12:00am 28.3 SSW 10 13 1012.0 - 0.0 - - - - - - -
 
Date/Time
WST
Temp
°C
Wind Pressure Rain since
9am
mm
Weather Cloud Vis
km
Sea
Height
m
Swell
Dir  Spd
kts
Gust
kts
hPa Trend Height
m
Period
s
Dir
22/11:30pm 29.2 SSW 9 11 1012.3 - 0.0 - - - - - - -
22/11:00pm 30.1 SSW 11 15 1012.4 - 0.0 - - - - - - -
22/10:30pm 30.4 SSW 12 15 1012.3 - 0.0 - - - - - - -
22/10:00pm 30.6 SSW 11 13 1012.1 - 0.0 - - - - - - -
22/09:30pm 31.4 SSW 10 13 1011.9 - 0.0 - - - - - - -
22/09:00pm 31.8 SSW 11 14 1011.7 - 0.0 - - - - - - -
22/08:30pm 31.9 SW 10 12 1011.3 - 0.0 - - - - - - -
22/08:00pm 32.2 SW 11 14 1010.9 - 0.0 - - - - - - -
22/07:30pm 32.7 WSW 10 12 1010.6 - 0.0 - - - - - - -
22/07:00pm 34.2 SSW 8 9 1010.2 - 0.0 - - - - - - -
22/06:30pm 35.7 SSW 10 13 1010.0 - 0.0 - - - - - - -
22/06:00pm 36.8 SSW 11 13 1009.7 - 0.0 - - - - - - -
22/05:30pm 37.6 SSW 11 15 1009.4 - 0.0 - - - - - - -
22/05:00pm 38.2 SSW 11 16 1009.2 - 0.0 - - - - - - -
22/04:30pm 38.4 SW 11 16 1009.2 - 0.0 - - - - - - -
22/04:00pm 38.4 SW 10 14 1009.2 - 0.0 - - - - - - -
22/03:30pm 37.9 W 9 13 1009.4 - 0.0 - - - - - - -
22/03:00pm 37.1 WNW 12 14 1009.7 - 0.0 - - - - - - -
22/02:30pm 36.4 NW 13 16 1010.0 - 0.0 - - - - - - -
22/02:00pm 38.6 SSE 6 11 1010.3 - 0.0 - - - - - - -
22/01:30pm 38.3 S 9 12 1010.6 - 0.0 - - - - - - -
22/01:00pm 38.3 S 9 13 1010.9 - 0.0 - - - - - - -
22/12:30pm 37.8 SSE 8 11 1011.3 - 0.0 - - - - - - -
22/12:00pm 37.5 SSE 8 12 1011.5 - 0.0 - - - - - - -
22/11:30am 36.4 SSE 9 12 1011.7 - 0.0 - - - - - - -
22/11:00am 36.0 SSE 9 12 1012.1 - 0.0 - - - - - - -
22/10:30am 35.3 SSE 10 13 1012.3 - 0.0 - - - - - - -
22/10:00am 34.4 SSE 10 13 1012.6 - 0.0 - - - - - - -
22/09:30am 33.5 SSE 10 14 1012.9 - 0.0 - - - - - - -
22/09:00am 32.4 SSE 12 15 1013.0 - 0.0 - - - - - - -
22/08:30am 30.6 SSE 12 15 1012.9 - 0.0 - - - - - - -
22/08:00am 29.4 SSE 11 15 1012.8 - 0.0 - - - - - - -
22/07:30am 28.2 S 11 14 1012.4 - 0.0 - - - - - - -
22/07:00am 26.3 S 10 13 1012.1 - 0.0 - - - - - - -
22/06:30am 25.8 S 11 13 1011.8 - 0.0 - - - - - - -
22/06:00am 25.7 S 11 15 1011.5 - 0.0 - - - - - - -
22/05:30am 25.9 S 10 12 1011.4 - 0.0 - - - - - - -
22/05:00am 26.2 S 11 14 1011.2 - 0.0 - - - - - - -
22/04:30am 26.7 SSW 11 15 1011.0 - 0.0 - - - - - - -
22/04:00am 27.1 SSW 11 15 1010.7 - 0.0 - - - - - - -
22/03:30am 27.6 SSW 12 14 1010.5 - 0.0 - - - - - - -
22/03:00am 28.0 SSW 12 15 1010.3 - 0.0 - - - - - - -
22/02:30am 28.4 SSW 13 16 1010.3 - 0.0 - - - - - - -
22/02:00am 28.8 SSW 12 17 1010.5 - 0.0 - - - - - - -
22/01:30am 29.1 SSW 12 15 1010.6 - 0.0 - - - - - - -
22/01:00am 29.5 SSW 12 16 1010.6 - 0.0 - - - - - - -
22/12:30am 29.8 SSW 11 15 1010.7 - 0.0 - - - - - - -
22/12:00am 30.4 SSW 13 17 1010.8 - 0.0 - - - - - - -
 
Date/Time
WST
Temp
°C
Wind Pressure Rain since
9am
mm
Weather Cloud Vis
km
Sea
Height
m
Swell
Dir  Spd
kts
Gust
kts
hPa Trend Height
m
Period
s
Dir
21/11:30pm 30.6 SSW 12 15 1010.9 - 0.0 - - - - - - -
21/11:00pm 31.3 SSW 13 17 1010.9 - 0.0 - - - - - - -
21/10:30pm 31.8 SSW 15 18 1011.0 - 0.0 - - - - - - -
21/10:00pm 32.3 SSW 15 19 1011.0 - 0.0 - - - - - - -
21/09:30pm 32.8 SSW 15 21 1010.7 - 0.0 - - - - - - -
21/09:00pm 33.3 SSW 13 17 1010.4 - 0.0 - - - - - - -
21/08:30pm 32.9 SW 11 14 1010.0 - 0.0 - - - - - - -
21/08:00pm 33.4 SW 12 14 1009.7 - 0.0 - - - - - - -
21/07:30pm 34.6 SSW 11 14 1009.3 - 0.0 - - - - - - -
21/07:00pm 34.5 WSW 8 11 1008.9 - 0.0 - - - - - - -
21/06:30pm 34.0 W 10 14 1008.4 - 0.0 - - - - - - -

Other Formats:

Comma delimited format used in spreadsheet applications
http://www.bom.gov.au/fwo/IDW60701/IDW60701.95305.axf

JavaScript Object Notation format (JSON) in row-major order
http://www.bom.gov.au/fwo/IDW60701/IDW60701.95305.json